Nearby METAR Reports

 

KDLS - The Dalles, Oregon, USA
Distance from station: NNE 2mi, 3km
Updated: Mon, 04-Jul-2022 1:53am PDT
Clear
Clear
 Wind from NW
Wind: NW 10 mph , 17 km/h
Temperature: 64°F , 18°C
Dew Point: 48°F , 9°C
Humidity: 56%
Barometer: 29.88 inHg , 1011.9 hPa
Clouds: Clear
Visibility: 10 miles , 16 km
2022/07/04 08:53 KDLS 040853Z AUTO 31009KT 10SM CLR 18/09 A2988 RMK AO2 SLP117 T01780089 51003
KTTD - Troutdale, Oregon, USA
Distance from station: W 60mi, 96km
Updated: Mon, 04-Jul-2022 1:53am PDT
Clear
Clear
 Wind from WNW
Wind: WNW 3 mph , 6 km/h
Temperature: 57°F , 14°C
Dew Point: 52°F , 11°C
Humidity: 82%
Barometer: 29.94 inHg , 1013.9 hPa
Clouds: Clear
Visibility: 10 miles , 16 km
2022/07/04 08:53 KTTD 040853Z AUTO 30003KT 10SM CLR 14/11 A2994 RMK AO2 SLP138 T01440106 58001
 
KPDX - Portland, Oregon, USA
Distance from station: W 69mi, 111km
Updated: Mon, 04-Jul-2022 1:53am PDT
Few Clouds
Few Clouds
 Wind from NNW
Wind: NNW 6 mph , 9 km/h
Temperature: 57°F , 14°C
Dew Point: 50°F , 10°C
Humidity: 77%
Barometer: 29.95 inHg , 1014.2 hPa
Clouds: Few Clouds
Visibility: 10 miles , 16 km
Cloud details: Few Clouds 4400 ft
2022/07/04 08:53 KPDX 040853Z 33005KT 10SM FEW044 14/10 A2995 RMK AO2 SLP139 T01440100 58001
KVUO - Vancouver, Washington, USA
Distance from station: W 71mi, 114km
Updated: Mon, 04-Jul-2022 1:53am PDT
Few Clouds
Few Clouds
 Wind from calm
Wind: Calm
Temperature: 57°F , 14°C
Dew Point: 50°F , 10°C
Humidity: 77%
Barometer: 29.94 inHg , 1013.9 hPa
Clouds: Few Clouds
Visibility: 10 miles , 16 km
Cloud details: Few Clouds 4300 ft
2022/07/04 08:53 KVUO 040853Z AUTO 00000KT 10SM FEW043 14/10 A2994 RMK AO2 SLP140 T01440100 56002
 
KYKM - Yakima, Washington, USA
Distance from station: NNE 74mi, 120km
Updated: Mon, 04-Jul-2022 1:53am PDT
Clear
Clear
 Wind from NW
Wind: NW 6 mph , 9 km/h
Temperature: 57°F , 14°C
Dew Point: 43°F , 6°C
Humidity: 59%
Barometer: 29.86 inHg , 1011.2 hPa
Clouds: Clear
Visibility: 10 miles , 16 km
2022/07/04 08:53 KYKM 040853Z AUTO 31005KT 10SM CLR 14/06 A2986 RMK AO2 SLP107 T01440056 55001
KUAO - Aurora, Oregon, USA
Distance from station: WSW 80mi, 129km
Updated: Mon, 04-Jul-2022 1:53am PDT
Clear
Clear
 Wind from N
Wind: N 3 mph , 6 km/h
Temperature: 55°F , 13°C
Dew Point: 50°F , 10°C
Humidity: 82%
Barometer: 29.95 inHg , 1014.2 hPa
Clouds: Clear
Visibility: 10 miles , 16 km
2022/07/04 08:53 KUAO 040853Z AUTO 36003KT 10SM CLR 13/10 A2995 RMK AO2 SLP141 T01280100 50002
 
KSPB - Scappoose, Oregon, USA
Distance from station: W 82mi, 132km
Updated: Mon, 04-Jul-2022 1:53am PDT
Clear
Clear
 Wind from NNW
Wind: NNW 3 mph , 6 km/h
Temperature: 55°F , 13°C
Dew Point: 48°F , 9°C
Humidity: 77%
Barometer: 29.94 inHg , 1013.9 hPa
Clouds: Clear
Visibility: 10 miles , 16 km
2022/07/04 08:53 KSPB 040853Z AUTO 33003KT 10SM CLR 13/09 A2994 RMK AO2 SLP137 T01280094 56003 $
KHIO - Hillsboro/Portld, Oregon, USA
Distance from station: W 85mi, 137km
Updated: Mon, 04-Jul-2022 1:53am PDT
Clear
Clear
 Wind from NW
Wind: NW 6 mph , 9 km/h
Temperature: 52°F , 11°C
Dew Point: 48°F , 9°C
Humidity: 88%
Barometer: 29.94 inHg , 1013.9 hPa
Clouds: Clear
Visibility: 10 miles , 16 km
2022/07/04 08:53 KHIO 040853Z 31005KT 10SM CLR 11/09 A2994 RMK AO2 SLP138 T01060089 56002
 
KKLS - Kelso Longveiw, Washington, USA
Distance from station: WNW 90mi, 145km
Updated: Mon, 04-Jul-2022 1:56am PDT
Few Clouds
Few Clouds
 Wind from calm
Wind: Calm
Temperature: 52°F , 11°C
Dew Point: 50°F , 10°C
Humidity: 94%
Barometer: 29.97 inHg , 1014.9 hPa
Clouds: Few Clouds
Visibility: 10 miles , 16 km
Cloud details: Few Clouds 2000 ft
2022/07/04 08:56 KKLS 040856Z AUTO 00000KT 10SM FEW020 11/10 A2997 RMK AO2 SLP151 T01110100 57001
KRDM - Redmond, Oregon, USA
Distance from station: S 93mi, 149km
Updated: Mon, 04-Jul-2022 1:56am PDT
Light rain, Overcast
Light rain, Overcast
 Wind from calm
Wind: Calm
Temperature: 55°F , 13°C
Dew Point: 46°F , 8°C
Humidity: 72%
Summary: Light rain
Clouds: Overcast
Visibility: 10 miles , 16 km
Cloud details: Mostly cloudy 7500 ft
Mostly cloudy 9000 ft
Overcast 11000 ft
2022/07/04 08:56 KRDM 040856Z AUTO 00000KT 10SM -RA BKN075 BKN090 OVC110 13/08 RMK AO2 RAB54 SLPNO P0000 60000 T01330083 $
 
KHRI - Hermiston, Oregon, USA
Distance from station: E 94mi, 151km
Updated: Mon, 04-Jul-2022 1:53am PDT
Clear
Clear
 Wind from SW
Wind: SW 10 mph , 17 km/h
Temperature: 64°F , 18°C
Dew Point: 48°F , 9°C
Humidity: 56%
Barometer: 29.86 inHg , 1011.2 hPa
Clouds: Clear
Visibility: 10 miles , 16 km
2022/07/04 08:53 KHRI 040853Z AUTO 23009KT 10SM CLR 18/09 A2986 RMK AO2 SLP107 T01780089 53009 TSNO
KMMV - Mcminnville, Oregon, USA
Distance from station: WSW 98mi, 158km
Updated: Mon, 04-Jul-2022 1:53am PDT
Clear
Clear
 Wind from NW
Wind: NW 3 mph , 6 km/h
Temperature: 54°F , 12°C
Dew Point: 50°F , 10°C
Humidity: 88%
Barometer: 29.94 inHg , 1013.9 hPa
Clouds: Clear
Visibility: 10 miles , 16 km
2022/07/04 08:53 KMMV 040853Z AUTO 31003KT 10SM CLR 12/10 A2994 RMK AO2 SLP138 T01220100 50001
 
KSLE - Salem, Oregon, USA
Distance from station: WSW 100mi, 161km
Updated: Mon, 04-Jul-2022 1:56am PDT
Clear
Clear
 Wind from NNW
Wind: NNW 5 mph , 7 km/h
Temperature: 55°F , 13°C
Dew Point: 52°F , 11°C
Humidity: 88%
Barometer: 29.93 inHg , 1013.5 hPa
Clouds: Clear
Visibility: 10 miles , 16 km
2022/07/04 08:56 KSLE 040856Z 33004KT 10SM CLR 13/11 A2993 RMK AO2 SLP136 T01330106 51002
KBDN - Bend, Oregon, USA
Distance from station: S 103mi, 166km
Updated: Mon, 04-Jul-2022 2:35am PDT
Clear
Clear
 Wind from calm
Wind: Calm
Temperature: 54°F , 12°C
Dew Point: 48°F , 9°C
Humidity: 82%
Barometer: 29.98 inHg , 1015.2 hPa
Clouds: Clear
Visibility: 10 miles , 16 km
2022/07/04 09:35 KBDN 040935Z AUTO 00000KT 10SM CLR 12/09 A2998 RMK AO2
 
KELN - Ellensburg, Washington, USA
Distance from station: NNE 104mi, 168km
Updated: Mon, 04-Jul-2022 1:53am PDT
Clear
Clear
 Wind from NW
Wind: NW 16 mph , 26 km/h
Temperature: 54°F , 12°C
Dew Point: 43°F , 6°C
Humidity: 67%
Barometer: 29.87 inHg , 1011.5 hPa
Clouds: Clear
Visibility: 10 miles , 16 km
2022/07/04 08:53 KELN 040853Z AUTO 32014KT 10SM CLR 12/06 A2987 RMK AO2 SLP109 T01220061 56006
KPSC - Pasco, Washington, USA
Distance from station: ENE 110mi, 177km
Updated: Mon, 04-Jul-2022 1:53am PDT
Clear
Clear
 Wind from NW
Wind: NW 3 mph , 6 km/h
Temperature: 64°F , 18°C
Dew Point: 48°F , 9°C
Humidity: 56%
Barometer: 29.84 inHg , 1010.5 hPa
Clouds: Clear
Visibility: 10 miles , 16 km
2022/07/04 08:53 KPSC 040853Z AUTO 31003KT 10SM CLR 18/09 A2984 RMK AO2 SLP101 T01780089 50013
 
KPDT - Pendleton, Oregon, USA
Distance from station: E 114mi, 183km
Updated: Mon, 04-Jul-2022 1:53am PDT
Clear
Clear
 Wind from W
Wind: W 3 mph , 6 km/h
Temperature: 61°F , 16°C
Dew Point: 46°F , 8°C
Humidity: 59%
Barometer: 29.88 inHg , 1011.9 hPa
Clouds: Clear
Visibility: 10 miles , 16 km
2022/07/04 08:53 KPDT 040853Z AUTO 26003KT 10SM CLR 16/08 A2988 RMK AO2 SLP105 T01610083 51006
KCLS - Chehalis Central, Washington, USA
Distance from station: NW 115mi, 184km
Updated: Mon, 04-Jul-2022 2:35am PDT
Overcast
Overcast
 
Temperature: 52°F , 11°C
Dew Point: 52°F , 11°C
Humidity: 100%
Barometer: 29.97 inHg , 1014.9 hPa
Clouds: Overcast
Visibility: 9 miles , 14 km
Cloud details: Overcast 2600 ft
2022/07/04 09:35 KCLS 040935Z AUTO 9SM OVC026 11/11 A2997 RMK AO2
 
KPLU - Puyallup/Thun, Washington, USA
Distance from station: NNW 117mi, 188km
Updated: Mon, 04-Jul-2022 2:35am PDT
Mist, Overcast
Mist, Overcast
 Wind from calm
Wind: Calm
Temperature: 52°F , 11°C
Dew Point: 52°F , 11°C
Humidity: 100%
Barometer: 29.96 inHg , 1014.6 hPa
Summary: Mist
Clouds: Overcast
Visibility: 6 miles , 10 km
Cloud details: Few Clouds 2900 ft
Overcast 3700 ft
2022/07/04 09:35 KPLU 040935Z AUTO 00000KT 6SM BR FEW029 OVC037 11/11 A2996 RMK AO2
KCVO - Corvallis Muni A, Oregon, USA
Distance from station: WNW 167mi, 269km
Updated: Mon, 04-Jul-2022 1:56am PDT
Few Clouds
Few Clouds
 Wind from WNW
Wind: WNW 7 mph , 11 km/h
Temperature: 54°F , 12°C
Dew Point: 52°F , 11°C
Humidity: 94%
Barometer: 29.95 inHg , 1014.2 hPa
Clouds: Few Clouds
Visibility: 10 miles , 16 km
Cloud details: Few Clouds 5500 ft
2022/07/04 08:56 KCVO 040856Z AUTO 29006KT 10SM FEW055 12/11 A2995 RMK AO2 SLP144 T01220106 51004
 
KEUG - Eugene, Oregon, USA
Distance from station: W 193mi, 310km
Updated: Mon, 04-Jul-2022 1:54am PDT
Clear
Clear
 Wind from calm
Wind: Calm
Temperature: 54°F , 12°C
Dew Point: 50°F , 10°C
Humidity: 88%
Barometer: 29.95 inHg , 1014.2 hPa
Clouds: Clear
Visibility: 10 miles , 16 km
2022/07/04 08:54 KEUG 040854Z AUTO 00000KT 10SM CLR 12/10 A2995 RMK AO2 SLP143 T01170100 52005
KRBG - Roseburg, Oregon, USA
Distance from station: WSW 196mi, 315km
Updated: Mon, 04-Jul-2022 1:53am PDT
Clear
Clear
 Wind from NNE
Wind: NNE 5 mph , 7 km/h
Temperature: 57°F , 14°C
Dew Point: 52°F , 11°C
Humidity: 82%
Barometer: 29.95 inHg , 1014.2 hPa
Clouds: Clear
Visibility: 10 miles , 16 km
2022/07/04 08:53 KRBG 040853Z AUTO 02004KT 10SM CLR 14/11 A2995 RMK AO2 SLP142 T01440106 51007
 
KLKV - Lakeview, Oregon, USA
Distance from station: SSE 239mi, 385km
Updated: Mon, 04-Jul-2022 1:53am PDT
Overcast
Overcast
 Wind from calm
Wind: Calm
Temperature: 54°F , 12°C
Dew Point: 39°F , 4°C
Humidity: 58%
Barometer: 30.00 inHg , 1015.9 hPa
Clouds: Overcast
Visibility: 10 miles , 16 km
Cloud details: Few Clouds 6000 ft
Overcast 8000 ft
2022/07/04 08:53 KLKV 040853Z AUTO 00000KT 10SM FEW060 OVC080 12/04 A3000 RMK AO2 RAB18E38 SLP127 P0000 60000 T01170039 53006
KMFR - Medford, Oregon, USA
Distance from station: WSW 241mi, 388km
Updated: Mon, 04-Jul-2022 1:53am PDT
Overcast
Overcast
 Wind from calm
Wind: Calm
Temperature: 63°F , 17°C
Dew Point: 57°F , 14°C
Humidity: 83%
Barometer: 29.93 inHg , 1013.5 hPa
Clouds: Overcast
Visibility: 10 miles , 16 km
Cloud details: Overcast 8000 ft
2022/07/04 08:53 KMFR 040853Z AUTO 00000KT 10SM OVC080 17/14 A2993 RMK AO2 RAE0758B28E44 SLP126 P0000 60000 T01670139 51003 $
 
KBNO - Burns, Oregon, USA
Distance from station: ESE 249mi, 280km
Updated: Mon, 04-Jul-2022 1:53am PDT
Clear
Clear
 Wind from NW
Wind: NW 6 mph , 9 km/h
Temperature: 55°F , 13°C
Dew Point: 45°F , 7°C
Humidity: 67%
Barometer: 29.92 inHg , 1013.2 hPa
Clouds: Clear
Visibility: 10 miles , 16 km
2022/07/04 08:53 KBNO 040853Z AUTO 31005KT 10SM CLR 13/07 A2992 RMK AO2 SLP099 T01330072 51007
KLMT - Klamath Falls, Oregon, USA
Distance from station: SSW 266mi, 428km
Updated: Mon, 04-Jul-2022 1:53am PDT
Light rain, Overcast
Light rain, Overcast
 Wind from NNW
Wind: NNW 6 mph , 9 km/h
Temperature: 52°F , 11°C
Dew Point: 48°F , 9°C
Humidity: 88%
Barometer: 29.99 inHg , 1015.6 hPa
Summary: Light rain
Clouds: Overcast
Visibility: 10 miles , 16 km
Cloud details: Mostly cloudy 3800 ft
Overcast 5500 ft
2022/07/04 08:53 KLMT 040853Z AUTO 33005KT 10SM -RA BKN038 OVC055 11/09 A2999 RMK AO2 SLP124 P0001 60004 T01110094 51008